Chualar, California
Current Conditions -  °F | °C
As of 2:53 PM on Wednesday 26 Nov 2014 (Local Time) from KSNS Reporting Station
Clear Clear  
Wind Chill: 81°   Ceiling: Unl
Heat Index: 81°   Visibility: 10mi
Dew Point: 33°   Wind: 0mph
Humidity: 18%   Direction: NA
Pressure: 30.18"   Gusts: NA
Location:  36.57°N, 121.52°W
Report Text: KSNS 262253Z 00000KT 10SM CLR 27/01 A3018 RMK AO2 SLP227 T02720006
Loading
Personal Weather Stations






























Interactive Weather Map New forecast layout! Learn more

10-Day Weather Forecast

Advertisements
Track Severe Weather on mobile